Time,TemperatureF,DewpointF,PressureIn,WindDirection,WindDirectionDegrees,WindSpeedMPH,WindSpeedGustMPH,Humidity,HourlyPrecipIn,Conditions,Clouds,dailyrainin,SoftwareType,DateUTC
2013-03-17 00:01:00,37.9,27.2,29.98,NE,45,4.5,11.9,65,-99.99,,,0.00,wxRedirect v1.1,2013-03-17 05:01:00,
2013-03-17 00:07:00,37.9,27.2,29.98,NNE,22,12.5,16.3,65,-99.99,,,0.00,wxRedirect v1.1,2013-03-17 05:07:00,
2013-03-17 00:12:00,37.9,27.2,29.98,NE,45,17.4,24.8,65,-99.99,,,0.00,wxRedirect v1.1,2013-03-17 05:12:00,
2013-03-17 00:17:00,37.8,27.0,29.98,ENE,67,4.3,24.8,65,-99.99,,,0.00,wxRedirect v1.1,2013-03-17 05:17:00,
2013-03-17 00:23:00,37.6,26.9,29.99,ENE,67,9.4,17.4,65,-99.99,,,0.00,wxRedirect v1.1,2013-03-17 05:23:00,
2013-03-17 00:28:00,37.6,26.9,29.98,NE,45,12.8,15.7,65,-99.99,,,0.00,wxRedirect v1.1,2013-03-17 05:28:00,
2013-03-17 00:33:00,37.2,26.5,29.99,NNE,22,8.3,20.6,65,-99.99,,,0.00,wxRedirect v1.1,2013-03-17 05:33:00,
2013-03-17 00:38:00,37.2,26.5,29.99,NE,45,14.5,20.6,65,-99.99,,,0.00,wxRedirect v1.1,2013-03-17 05:38:00,
2013-03-17 00:44:00,37.2,26.5,29.99,NE,45,13.0,16.8,65,-99.99,,,0.00,wxRedirect v1.1,2013-03-17 05:44:00,
2013-03-17 00:49:00,37.0,26.3,29.99,NE,45,9.2,16.8,65,-99.99,,,0.00,wxRedirect v1.1,2013-03-17 05:49:00,
2013-03-17 00:54:00,36.9,26.2,29.99,NE,45,9.8,14.1,65,-99.99,,,0.00,wxRedirect v1.1,2013-03-17 05:54:00,
2013-03-17 01:02:00,36.9,26.5,29.99,NE,45,6.9,11.9,66,-99.99,,,0.00,wxRedirect v1.1,2013-03-17 06:02:00,
2013-03-17 01:08:00,36.7,26.4,29.99,NE,45,3.8,8.3,66,-99.99,,,0.00,wxRedirect v1.1,2013-03-17 06:08:00,
2013-03-17 01:13:00,36.5,26.2,29.99,NE,45,8.9,17.7,66,-99.99,,,0.00,wxRedirect v1.1,2013-03-17 06:13:00,
2013-03-17 01:18:00,35.8,25.5,29.99,NNE,22,9.6,18.1,66,-99.99,,,0.00,wxRedirect v1.1,2013-03-17 06:18:00,
2013-03-17 01:24:00,36.5,26.2,29.99,NNE,22,7.8,18.1,66,-99.99,,,0.00,wxRedirect v1.1,2013-03-17 06:24:00,
2013-03-17 01:29:00,36.5,26.2,29.98,NNE,22,9.6,14.1,66,-99.99,,,0.00,wxRedirect v1.1,2013-03-17 06:29:00,
2013-03-17 01:34:00,36.5,26.2,29.99,ENE,67,4.0,16.8,66,-99.99,,,0.00,wxRedirect v1.1,2013-03-17 06:34:00,
2013-03-17 01:40:00,36.3,26.4,29.98,NE,45,9.4,16.8,67,-99.99,,,0.00,wxRedirect v1.1,2013-03-17 06:40:00,
2013-03-17 01:45:00,35.4,25.5,29.99,NE,45,10.5,15.7,67,-99.99,,,0.00,wxRedirect v1.1,2013-03-17 06:45:00,
2013-03-17 01:50:00,36.3,26.4,29.98,ENE,67,4.3,10.5,67,-99.99,,,0.00,wxRedirect v1.1,2013-03-17 06:50:00,
2013-03-17 01:56:00,36.3,26.4,29.98,NE,45,16.8,16.8,67,-99.99,,,0.00,wxRedirect v1.1,2013-03-17 06:56:00,
2013-03-17 02:01:00,35.8,25.9,29.99,NE,45,9.8,16.8,67,-99.99,,,0.00,wxRedirect v1.1,2013-03-17 07:01:00,
2013-03-17 02:06:00,36.0,26.0,29.99,NE,45,9.2,12.5,67,-99.99,,,0.00,wxRedirect v1.1,2013-03-17 07:06:00,
2013-03-17 02:12:00,36.0,26.0,29.99,NE,45,10.5,10.5,67,-99.99,,,0.00,wxRedirect v1.1,2013-03-17 07:12:00,
2013-03-17 02:17:00,35.8,25.9,29.99,ENE,67,7.6,10.5,67,-99.99,,,0.00,wxRedirect v1.1,2013-03-17 07:17:00,
2013-03-17 02:22:00,35.8,25.9,29.98,NE,45,8.5,10.5,67,-99.99,,,0.00,wxRedirect v1.1,2013-03-17 07:22:00,
2013-03-17 02:28:00,35.4,25.5,29.96,NE,45,8.7,11.2,67,-99.99,,,0.00,wxRedirect v1.1,2013-03-17 07:28:00,
2013-03-17 02:33:00,35.4,25.9,29.96,North,0,8.1,15.7,68,-99.99,,,0.00,wxRedirect v1.1,2013-03-17 07:33:00,
2013-03-17 02:38:00,35.4,25.9,29.96,ENE,67,6.3,15.7,68,-99.99,,,0.00,wxRedirect v1.1,2013-03-17 07:38:00,
2013-03-17 02:44:00,35.4,25.9,29.95,NNE,22,13.9,13.9,68,-99.99,,,0.00,wxRedirect v1.1,2013-03-17 07:44:00,
2013-03-17 02:49:00,35.4,25.9,29.96,ENE,67,1.6,13.9,68,-99.99,,,0.00,wxRedirect v1.1,2013-03-17 07:49:00,
2013-03-17 02:54:00,35.4,25.9,29.97,NE,45,13.0,14.1,68,-99.99,,,0.00,wxRedirect v1.1,2013-03-17 07:54:00,
2013-03-17 03:00:00,35.2,25.7,29.96,NE,45,11.6,14.1,68,-99.99,,,0.00,wxRedirect v1.1,2013-03-17 08:00:00,
2013-03-17 03:05:00,35.2,25.7,29.97,NE,45,2.9,14.8,68,-99.99,,,0.00,wxRedirect v1.1,2013-03-17 08:05:00,
2013-03-17 03:10:00,35.4,25.9,29.97,NE,45,11.6,14.8,68,-99.99,,,0.00,wxRedirect v1.1,2013-03-17 08:10:00,
2013-03-17 03:16:00,34.5,25.0,29.96,NE,45,9.4,11.6,68,-99.99,,,0.00,wxRedirect v1.1,2013-03-17 08:16:00,
2013-03-17 03:21:00,35.4,25.9,29.95,NE,45,4.3,11.6,68,-99.99,,,0.00,wxRedirect v1.1,2013-03-17 08:21:00,
2013-03-17 03:27:00,35.4,25.9,29.95,NE,45,17.9,17.9,68,-99.99,,,0.00,wxRedirect v1.1,2013-03-17 08:27:00,
2013-03-17 03:32:00,35.4,25.9,29.94,NE,45,5.1,17.9,68,-99.99,,,0.00,wxRedirect v1.1,2013-03-17 08:32:00,
2013-03-17 03:37:00,35.4,25.9,29.94,ENE,67,13.0,13.0,68,-99.99,,,0.00,wxRedirect v1.1,2013-03-17 08:37:00,
2013-03-17 03:42:00,35.2,25.7,29.93,NE,45,9.2,13.0,68,-99.99,,,0.00,wxRedirect v1.1,2013-03-17 08:42:00,
2013-03-17 03:48:00,35.2,25.7,29.93,NE,45,8.1,10.1,68,-99.99,,,0.00,wxRedirect v1.1,2013-03-17 08:48:00,
2013-03-17 03:53:00,35.2,25.7,29.93,NE,45,10.1,11.9,68,-99.99,,,0.00,wxRedirect v1.1,2013-03-17 08:53:00,
2013-03-17 03:58:00,35.2,25.7,29.93,East,90,6.3,11.9,68,-99.99,,,0.00,wxRedirect v1.1,2013-03-17 08:58:00,
2013-03-17 04:04:00,35.1,25.5,29.93,NE,45,5.1,10.5,68,-99.99,,,0.00,wxRedirect v1.1,2013-03-17 09:04:00,
2013-03-17 04:09:00,35.1,25.5,29.93,ENE,67,10.5,10.5,68,-99.99,,,0.00,wxRedirect v1.1,2013-03-17 09:09:00,
2013-03-17 04:14:00,34.9,25.3,29.93,ENE,67,2.9,13.2,68,-99.99,,,0.00,wxRedirect v1.1,2013-03-17 09:14:00,
2013-03-17 04:19:00,34.9,25.3,29.93,East,90,2.9,13.2,68,-99.99,,,0.00,wxRedirect v1.1,2013-03-17 09:19:00,
2013-03-17 04:24:00,34.9,25.3,29.93,ESE,112,5.4,9.8,68,-99.99,,,0.00,wxRedirect v1.1,2013-03-17 09:24:00,
2013-03-17 04:30:00,34.9,25.3,29.93,NE,45,11.4,11.4,68,-99.99,,,0.00,wxRedirect v1.1,2013-03-17 09:30:00,
2013-03-17 04:35:00,34.3,24.8,29.93,ENE,67,10.1,11.4,68,-99.99,,,0.00,wxRedirect v1.1,2013-03-17 09:35:00,
2013-03-17 04:40:00,34.9,25.3,29.94,East,90,10.3,10.3,68,-99.99,,,0.00,wxRedirect v1.1,2013-03-17 09:40:00,
2013-03-17 04:46:00,34.9,25.3,29.94,NE,45,4.7,10.3,68,-99.99,,,0.00,wxRedirect v1.1,2013-03-17 09:46:00,
2013-03-17 04:51:00,35.1,25.5,29.94,ENE,67,3.1,4.7,68,-99.99,,,0.00,wxRedirect v1.1,2013-03-17 09:51:00,
2013-03-17 04:56:00,35.2,25.7,29.94,NE,45,6.3,7.2,68,-99.99,,,0.00,wxRedirect v1.1,2013-03-17 09:56:00,
2013-03-17 05:02:00,35.2,25.7,29.93,East,90,5.4,10.5,68,-99.99,,,0.00,wxRedirect v1.1,2013-03-17 10:02:00,
2013-03-17 05:07:00,34.9,25.3,29.94,ENE,67,4.5,10.5,68,-99.99,,,0.00,wxRedirect v1.1,2013-03-17 10:07:00,
2013-03-17 05:12:00,34.9,25.3,29.94,ENE,67,2.9,7.4,68,-99.99,,,0.00,wxRedirect v1.1,2013-03-17 10:12:00,
2013-03-17 05:18:00,35.1,25.5,29.93,ENE,67,4.0,7.4,68,-99.99,,,0.00,wxRedirect v1.1,2013-03-17 10:18:00,
2013-03-17 05:23:00,34.9,25.3,29.94,ENE,67,3.6,7.4,68,-99.99,,,0.00,wxRedirect v1.1,2013-03-17 10:23:00,
2013-03-17 05:28:00,34.9,25.3,29.94,East,90,7.2,9.8,68,-99.99,,,0.00,wxRedirect v1.1,2013-03-17 10:28:00,
2013-03-17 05:34:00,35.2,25.7,29.93,East,90,2.2,9.8,68,-99.99,,,0.00,wxRedirect v1.1,2013-03-17 10:34:00,
2013-03-17 05:39:00,35.2,25.7,29.93,East,90,9.6,9.6,68,-99.99,,,0.00,wxRedirect v1.1,2013-03-17 10:39:00,
2013-03-17 05:44:00,34.9,25.3,29.94,ENE,67,1.3,12.5,68,-99.99,,,0.00,wxRedirect v1.1,2013-03-17 10:44:00,
2013-03-17 05:50:00,34.9,25.3,29.93,ENE,67,2.7,12.5,68,-99.99,,,0.00,wxRedirect v1.1,2013-03-17 10:50:00,
2013-03-17 05:55:00,34.9,25.3,29.93,ENE,67,9.6,9.6,68,-99.99,,,0.00,wxRedirect v1.1,2013-03-17 10:55:00,
2013-03-17 06:00:00,34.9,25.3,29.93,NE,45,13.2,13.2,68,-99.99,,,0.00,wxRedirect v1.1,2013-03-17 11:00:00,
2013-03-17 06:06:00,34.9,25.7,29.92,ENE,67,7.4,13.2,69,-99.99,,,0.00,wxRedirect v1.1,2013-03-17 11:06:00,
2013-03-17 06:11:00,34.9,25.7,29.93,East,90,4.0,9.2,69,-99.99,,,0.00,wxRedirect v1.1,2013-03-17 11:11:00,
2013-03-17 06:17:00,34.2,25.0,29.92,NE,45,5.4,9.2,69,-99.99,,,0.00,wxRedirect v1.1,2013-03-17 11:17:00,
2013-03-17 06:22:00,34.0,24.8,29.93,ENE,67,6.5,6.9,69,-99.99,,,0.00,wxRedirect v1.1,2013-03-17 11:22:00,
2013-03-17 06:27:00,34.7,25.5,29.93,NE,45,8.1,8.1,69,-99.99,,,0.00,wxRedirect v1.1,2013-03-17 11:27:00,
2013-03-17 06:32:00,34.7,25.5,29.93,NE,45,8.7,8.7,69,-99.99,,,0.00,wxRedirect v1.1,2013-03-17 11:32:00,
2013-03-17 06:38:00,34.9,25.7,29.93,East,90,8.9,8.9,69,-99.99,,,0.00,wxRedirect v1.1,2013-03-17 11:38:00,
2013-03-17 06:43:00,34.7,25.5,29.92,NE,45,7.8,8.9,69,-99.99,,,0.00,wxRedirect v1.1,2013-03-17 11:43:00,
2013-03-17 06:49:00,34.9,25.7,29.93,ENE,67,6.7,7.8,69,-99.99,,,0.00,wxRedirect v1.1,2013-03-17 11:49:00,
2013-03-17 06:54:00,34.9,25.7,29.93,ENE,67,0.0,6.7,69,-99.99,,,0.00,wxRedirect v1.1,2013-03-17 11:54:00,
2013-03-17 06:59:00,34.9,25.7,29.94,ENE,67,5.4,5.4,69,-99.99,,,0.00,wxRedirect v1.1,2013-03-17 11:59:00,
2013-03-17 07:05:00,34.9,25.7,29.94,ENE,67,8.5,8.5,69,-99.99,,,0.00,wxRedirect v1.1,2013-03-17 12:05:00,
2013-03-17 07:10:00,34.9,25.7,29.94,ENE,67,3.6,8.5,69,-99.99,,,0.00,wxRedirect v1.1,2013-03-17 12:10:00,
2013-03-17 07:15:00,34.9,25.7,29.95,NE,45,6.5,8.3,69,-99.99,,,0.00,wxRedirect v1.1,2013-03-17 12:15:00,
2013-03-17 07:20:00,34.9,25.7,29.94,NE,45,3.8,8.3,69,-99.99,,,0.00,wxRedirect v1.1,2013-03-17 12:20:00,
2013-03-17 07:26:00,34.9,25.7,29.94,ENE,67,2.2,6.3,69,-99.99,,,0.00,wxRedirect v1.1,2013-03-17 12:26:00,
2013-03-17 07:31:00,35.1,25.9,29.94,NE,45,1.1,3.8,69,-99.99,,,0.00,wxRedirect v1.1,2013-03-17 12:31:00,
2013-03-17 07:37:00,35.1,25.9,29.94,NE,45,2.0,3.4,69,-99.99,,,0.00,wxRedirect v1.1,2013-03-17 12:37:00,
2013-03-17 07:42:00,35.2,26.1,29.94,ENE,67,0.0,5.1,69,-99.99,,,0.00,wxRedirect v1.1,2013-03-17 12:42:00,
2013-03-17 07:47:00,35.2,26.1,29.95,NNE,22,8.3,8.3,69,-99.99,,,0.00,wxRedirect v1.1,2013-03-17 12:47:00,
2013-03-17 07:52:00,35.2,26.1,29.94,NE,45,3.8,8.3,69,-99.99,,,0.00,wxRedirect v1.1,2013-03-17 12:52:00,
2013-03-17 07:58:00,35.2,26.1,29.94,ENE,67,6.3,8.1,69,-99.99,,,0.00,wxRedirect v1.1,2013-03-17 12:58:00,
2013-03-17 08:03:00,35.4,26.2,29.94,NE,45,2.0,8.1,69,-99.99,,,0.00,wxRedirect v1.1,2013-03-17 13:03:00,
2013-03-17 08:08:00,35.4,26.2,29.95,NE,45,5.4,5.4,69,-99.99,,,0.00,wxRedirect v1.1,2013-03-17 13:08:00,
2013-03-17 08:14:00,35.4,26.2,29.94,NE,45,3.8,5.4,69,-99.99,,,0.00,wxRedirect v1.1,2013-03-17 13:14:00,
2013-03-17 08:19:00,35.4,26.2,29.94,NE,45,11.4,11.4,69,-99.99,,,0.00,wxRedirect v1.1,2013-03-17 13:19:00,
2013-03-17 08:25:00,35.4,26.2,29.94,NE,45,0.0,11.4,69,-99.99,,,0.00,wxRedirect v1.1,2013-03-17 13:25:00,
2013-03-17 08:30:00,35.4,26.2,29.94,East,90,3.1,4.9,69,-99.99,,,0.00,wxRedirect v1.1,2013-03-17 13:30:00,
2013-03-17 08:35:00,39.4,29.6,29.94,NNE,22,12.3,12.3,68,-99.99,,,0.00,wxRedirect v1.1,2013-03-17 13:35:00,
2013-03-17 08:41:00,35.8,26.6,29.93,ENE,67,5.8,12.3,69,-99.99,,,0.00,wxRedirect v1.1,2013-03-17 13:41:00,
2013-03-17 08:46:00,35.8,26.6,29.93,East,90,3.1,12.3,69,-99.99,,,0.00,wxRedirect v1.1,2013-03-17 13:46:00,
2013-03-17 08:52:00,35.8,26.6,29.93,ENE,67,4.9,4.9,69,-99.99,,,0.00,wxRedirect v1.1,2013-03-17 13:52:00,
2013-03-17 08:57:00,36.0,26.8,29.93,East,90,3.6,6.9,69,-99.99,,,0.00,wxRedirect v1.1,2013-03-17 13:57:00,
2013-03-17 09:02:00,36.0,26.8,29.92,East,90,5.6,6.9,69,-99.99,,,0.00,wxRedirect v1.1,2013-03-17 14:02:00,
2013-03-17 09:08:00,36.1,26.9,29.92,NE,45,10.1,10.1,69,-99.99,,,0.00,wxRedirect v1.1,2013-03-17 14:08:00,
2013-03-17 09:13:00,36.5,27.3,29.92,ENE,67,6.7,10.1,69,-99.99,,,0.00,wxRedirect v1.1,2013-03-17 14:13:00,
2013-03-17 09:18:00,37.0,27.8,29.93,NE,45,6.7,8.9,69,-99.99,,,0.00,wxRedirect v1.1,2013-03-17 14:18:00,
2013-03-17 09:24:00,37.2,27.6,29.93,ENE,67,4.3,8.9,68,-99.99,,,0.00,wxRedirect v1.1,2013-03-17 14:24:00,
2013-03-17 09:29:00,37.4,27.8,29.93,NE,45,4.9,7.6,68,-99.99,,,0.00,wxRedirect v1.1,2013-03-17 14:29:00,
2013-03-17 09:34:00,37.6,28.0,29.93,NE,45,3.1,7.6,68,-99.99,,,0.00,wxRedirect v1.1,2013-03-17 14:34:00,
2013-03-17 09:40:00,37.8,28.1,29.93,East,90,1.3,7.2,68,-99.99,,,0.00,wxRedirect v1.1,2013-03-17 14:40:00,
2013-03-17 09:45:00,37.8,28.1,29.93,NE,45,7.6,7.6,68,-99.99,,,0.00,wxRedirect v1.1,2013-03-17 14:45:00,
2013-03-17 09:50:00,37.6,27.6,29.93,ENE,67,3.1,7.8,67,-99.99,,,0.00,wxRedirect v1.1,2013-03-17 14:50:00,
2013-03-17 09:56:00,37.6,27.6,29.93,East,90,6.7,7.8,67,-99.99,,,0.00,wxRedirect v1.1,2013-03-17 14:56:00,
2013-03-17 10:01:00,37.8,27.8,29.93,ENE,67,3.6,10.5,67,-99.99,,,0.00,wxRedirect v1.1,2013-03-17 15:01:00,
2013-03-17 10:06:00,37.9,28.3,29.92,ENE,67,6.0,10.5,68,-99.99,,,0.00,wxRedirect v1.1,2013-03-17 15:06:00,
2013-03-17 10:12:00,37.9,28.3,29.92,East,90,6.0,13.6,68,-99.99,,,0.00,wxRedirect v1.1,2013-03-17 15:12:00,
2013-03-17 10:17:00,38.1,28.5,29.91,East,90,7.2,13.6,68,-99.99,,,0.00,wxRedirect v1.1,2013-03-17 15:17:00,
2013-03-17 10:22:00,38.3,28.6,29.91,ENE,67,8.1,8.5,68,-99.99,,,0.00,wxRedirect v1.1,2013-03-17 15:22:00,
2013-03-17 10:28:00,38.5,28.8,29.91,ENE,67,5.1,8.5,68,-99.99,,,0.00,wxRedirect v1.1,2013-03-17 15:28:00,
2013-03-17 10:33:00,38.7,28.6,29.91,ENE,67,4.0,5.1,67,-99.99,,,0.00,wxRedirect v1.1,2013-03-17 15:33:00,
2013-03-17 10:38:00,38.8,28.7,29.91,ENE,67,4.7,5.1,67,-99.99,,,0.00,wxRedirect v1.1,2013-03-17 15:38:00,
2013-03-17 10:44:00,38.8,28.7,29.92,East,90,3.8,4.7,67,-99.99,,,0.00,wxRedirect v1.1,2013-03-17 15:44:00,
2013-03-17 10:49:00,38.1,28.1,29.91,ENE,67,6.3,6.3,67,-99.99,,,0.00,wxRedirect v1.1,2013-03-17 15:49:00,
2013-03-17 10:54:00,39.2,29.1,29.91,ENE,67,8.3,8.3,67,-99.99,,,0.00,wxRedirect v1.1,2013-03-17 15:54:00,
2013-03-17 11:00:00,38.8,28.7,29.91,NE,45,7.2,8.3,67,-99.99,,,0.00,wxRedirect v1.1,2013-03-17 16:00:00,
2013-03-17 11:05:00,39.6,29.4,29.91,NE,45,12.1,12.1,67,-99.99,,,0.00,wxRedirect v1.1,2013-03-17 16:05:00,
2013-03-17 11:10:00,39.6,29.4,29.91,ENE,67,8.3,12.1,67,-99.99,,,0.00,wxRedirect v1.1,2013-03-17 16:10:00,
2013-03-17 11:16:00,39.6,29.4,29.91,NE,45,7.2,12.1,67,-99.99,,,0.00,wxRedirect v1.1,2013-03-17 16:16:00,
2013-03-17 11:22:00,39.6,29.4,29.90,NE,45,8.3,8.9,67,-99.99,,,0.00,wxRedirect v1.1,2013-03-17 16:22:00,
2013-03-17 11:27:00,39.9,29.8,29.90,ENE,67,4.3,8.9,67,-99.99,,,0.00,wxRedirect v1.1,2013-03-17 16:27:00,
2013-03-17 11:32:00,39.9,29.8,29.89,ENE,67,6.9,6.9,67,-99.99,,,0.00,wxRedirect v1.1,2013-03-17 16:32:00,
2013-03-17 11:38:00,40.3,30.1,29.89,ENE,67,8.1,12.5,67,-99.99,,,0.00,wxRedirect v1.1,2013-03-17 16:38:00,
2013-03-17 11:43:00,40.1,30.0,29.89,East,90,5.8,12.5,67,-99.99,,,0.00,wxRedirect v1.1,2013-03-17 16:43:00,
2013-03-17 11:48:00,40.3,30.1,29.89,ENE,67,9.2,9.2,67,-99.99,,,0.00,wxRedirect v1.1,2013-03-17 16:48:00,
2013-03-17 11:54:00,40.3,30.1,29.88,ENE,67,3.4,9.2,67,-99.99,,,0.00,wxRedirect v1.1,2013-03-17 16:54:00,
2013-03-17 11:59:00,40.6,30.5,29.88,ENE,67,13.4,13.4,67,-99.99,,,0.00,wxRedirect v1.1,2013-03-17 16:59:00,
2013-03-17 12:04:00,40.8,30.7,29.88,East,90,6.9,13.4,67,-99.99,,,0.00,wxRedirect v1.1,2013-03-17 17:04:00,
2013-03-17 12:10:00,41.2,31.0,29.88,East,90,4.3,6.9,67,-99.99,,,0.00,wxRedirect v1.1,2013-03-17 17:10:00,
2013-03-17 12:15:00,41.4,31.2,29.88,ESE,112,3.4,8.3,67,-99.99,,,0.00,wxRedirect v1.1,2013-03-17 17:15:00,
2013-03-17 12:20:00,41.5,31.4,29.88,ESE,112,4.0,10.3,67,-99.99,,,0.00,wxRedirect v1.1,2013-03-17 17:20:00,
2013-03-17 12:26:00,41.5,31.4,29.89,NE,45,7.6,10.3,67,-99.99,,,0.00,wxRedirect v1.1,2013-03-17 17:26:00,
2013-03-17 12:31:00,41.9,31.4,29.89,ENE,67,3.8,7.6,66,-99.99,,,0.00,wxRedirect v1.1,2013-03-17 17:31:00,
2013-03-17 12:36:00,41.2,30.7,29.88,East,90,6.0,6.5,66,-99.99,,,0.00,wxRedirect v1.1,2013-03-17 17:36:00,
2013-03-17 12:42:00,41.7,31.2,29.88,ENE,67,4.5,6.5,66,-99.99,,,0.00,wxRedirect v1.1,2013-03-17 17:42:00,
2013-03-17 12:47:00,41.7,31.2,29.88,East,90,0.2,4.5,66,-99.99,,,0.00,wxRedirect v1.1,2013-03-17 17:47:00,
2013-03-17 12:52:00,41.7,31.2,29.87,ENE,67,4.9,6.0,66,-99.99,,,0.00,wxRedirect v1.1,2013-03-17 17:52:00,
2013-03-17 12:57:00,41.5,31.0,29.86,NE,45,5.6,6.0,66,-99.99,,,0.00,wxRedirect v1.1,2013-03-17 17:57:00,
2013-03-17 13:03:00,41.7,31.2,29.86,ESE,112,3.8,5.6,66,-99.99,,,0.00,wxRedirect v1.1,2013-03-17 18:03:00,
2013-03-17 13:08:00,41.9,31.4,29.86,East,90,0.7,6.5,66,-99.99,,,0.00,wxRedirect v1.1,2013-03-17 18:08:00,
2013-03-17 13:13:00,41.9,31.7,29.86,East,90,3.1,12.8,67,-99.99,,,0.00,wxRedirect v1.1,2013-03-17 18:13:00,
2013-03-17 13:19:00,41.9,31.4,29.86,NNE,22,7.8,12.8,66,-99.99,,,0.00,wxRedirect v1.1,2013-03-17 18:19:00,
2013-03-17 13:24:00,41.9,31.4,29.86,NNE,22,2.5,9.2,66,-99.99,,,0.00,wxRedirect v1.1,2013-03-17 18:24:00,
2013-03-17 13:29:00,42.1,31.5,29.86,NNE,22,9.6,9.6,66,-99.99,,,0.00,wxRedirect v1.1,2013-03-17 18:29:00,
2013-03-17 13:35:00,42.1,31.1,29.86,NNE,22,8.1,9.6,65,-99.99,,,0.00,wxRedirect v1.1,2013-03-17 18:35:00,
2013-03-17 13:40:00,42.1,31.1,29.85,NNE,22,5.8,10.5,65,-99.99,,,0.00,wxRedirect v1.1,2013-03-17 18:40:00,
2013-03-17 13:45:00,42.1,31.1,29.85,NNE,22,4.9,10.5,65,-99.99,,,0.00,wxRedirect v1.1,2013-03-17 18:45:00,
2013-03-17 13:50:00,42.1,31.1,29.83,NNE,22,6.7,6.7,65,-99.99,,,0.00,wxRedirect v1.1,2013-03-17 18:50:00,
2013-03-17 13:55:00,42.1,30.7,29.84,NE,45,11.4,11.9,64,-99.99,,,0.00,wxRedirect v1.1,2013-03-17 18:55:00,
2013-03-17 14:01:00,41.9,31.0,29.83,NE,45,7.4,11.9,65,-99.99,,,0.00,wxRedirect v1.1,2013-03-17 19:01:00,
2013-03-17 14:06:00,41.9,31.0,29.83,NNE,22,12.1,12.1,65,-99.99,,,0.00,wxRedirect v1.1,2013-03-17 19:06:00,
2013-03-17 14:12:00,41.7,31.0,29.83,NNE,22,8.9,12.1,65,-99.99,,,0.00,wxRedirect v1.1,2013-03-17 19:12:00,
2013-03-17 14:17:00,41.7,30.8,29.83,NE,45,8.7,11.0,65,-99.99,,,0.00,wxRedirect v1.1,2013-03-17 19:17:00,
2013-03-17 14:22:00,41.7,30.8,29.82,NNE,22,10.1,10.1,65,-99.99,,,0.00,wxRedirect v1.1,2013-03-17 19:22:00,
2013-03-17 14:28:00,41.7,30.8,29.83,NNE,22,3.1,12.8,65,-99.99,,,0.00,wxRedirect v1.1,2013-03-17 19:28:00,
2013-03-17 14:33:00,41.7,30.8,29.82,ENE,67,2.5,12.8,65,-99.99,,,0.00,wxRedirect v1.1,2013-03-17 19:33:00,
2013-03-17 14:38:00,41.7,30.8,29.81,NE,45,8.1,8.1,65,-99.99,,,0.00,wxRedirect v1.1,2013-03-17 19:38:00,
2013-03-17 14:44:00,41.7,30.8,29.81,East,90,1.1,8.1,65,-99.99,,,0.00,wxRedirect v1.1,2013-03-17 19:44:00,
2013-03-17 14:49:00,41.7,31.2,29.80,East,90,4.5,7.4,66,-99.99,,,0.00,wxRedirect v1.1,2013-03-17 19:49:00,
2013-03-17 14:54:00,41.5,31.0,29.80,East,90,4.3,7.4,66,-99.99,,,0.00,wxRedirect v1.1,2013-03-17 19:54:00,
2013-03-17 15:00:00,41.5,31.0,29.80,ENE,67,2.9,7.4,66,-99.99,,,0.00,wxRedirect v1.1,2013-03-17 20:00:00,
2013-03-17 15:05:00,41.5,31.0,29.79,NE,45,2.9,3.4,66,-99.99,,,0.00,wxRedirect v1.1,2013-03-17 20:05:00,
2013-03-17 15:10:00,41.5,31.0,29.78,NE,45,2.9,3.4,66,-99.99,,,0.00,wxRedirect v1.1,2013-03-17 20:10:00,
2013-03-17 15:16:00,41.7,31.6,29.78,ENE,67,0.0,7.6,67,-99.99,,,0.00,wxRedirect v1.1,2013-03-17 20:16:00,
2013-03-17 15:22:00,41.9,31.7,29.78,East,90,2.0,7.6,67,-99.99,,,0.00,wxRedirect v1.1,2013-03-17 20:22:00,
2013-03-17 15:27:00,41.9,32.1,29.78,East,90,2.5,4.7,68,-99.99,,,0.00,wxRedirect v1.1,2013-03-17 20:27:00,
2013-03-17 15:32:00,41.9,32.1,29.78,East,90,2.5,2.5,68,-99.99,,,0.00,wxRedirect v1.1,2013-03-17 20:32:00,
2013-03-17 15:37:00,41.7,31.9,29.77,NE,45,6.5,6.5,68,-99.99,,,0.00,wxRedirect v1.1,2013-03-17 20:37:00,
2013-03-17 15:42:00,41.7,31.9,29.77,East,90,8.3,8.3,68,-99.99,,,0.00,wxRedirect v1.1,2013-03-17 20:42:00,
2013-03-17 15:48:00,41.7,31.9,29.77,ENE,67,4.0,8.5,68,-99.99,,,0.00,wxRedirect v1.1,2013-03-17 20:48:00,
2013-03-17 15:53:00,41.5,31.8,29.77,ENE,67,5.1,8.5,68,-99.99,,,0.00,wxRedirect v1.1,2013-03-17 20:53:00,
2013-03-17 15:58:00,41.7,31.9,29.76,ENE,67,5.6,5.6,68,-99.99,,,0.00,wxRedirect v1.1,2013-03-17 20:58:00,
2013-03-17 16:04:00,41.5,31.8,29.76,NE,45,3.4,5.6,68,-99.99,,,0.00,wxRedirect v1.1,2013-03-17 21:04:00,
2013-03-17 16:09:00,41.7,31.9,29.77,East,90,3.4,5.6,68,-99.99,,,0.00,wxRedirect v1.1,2013-03-17 21:09:00,
2013-03-17 16:14:00,41.5,31.8,29.76,East,90,5.8,5.8,68,-99.99,,,0.00,wxRedirect v1.1,2013-03-17 21:14:00,
2013-03-17 16:20:00,41.5,32.1,29.76,East,90,1.6,5.8,69,-99.99,,,0.00,wxRedirect v1.1,2013-03-17 21:20:00,
2013-03-17 16:25:00,41.5,32.1,29.75,ESE,112,4.5,5.4,69,-99.99,,,0.00,wxRedirect v1.1,2013-03-17 21:25:00,
2013-03-17 16:30:00,41.5,32.5,29.75,ESE,112,11.0,11.0,70,-99.99,,,0.00,wxRedirect v1.1,2013-03-17 21:30:00,
2013-03-17 16:35:00,41.5,32.5,29.74,ESE,112,3.4,11.0,70,-99.99,,,0.00,wxRedirect v1.1,2013-03-17 21:35:00,
2013-03-17 16:41:00,41.4,32.4,29.74,ENE,67,2.9,11.0,70,-99.99,,,0.00,wxRedirect v1.1,2013-03-17 21:41:00,
2013-03-17 16:46:00,41.2,32.5,29.73,NE,45,0.0,8.5,71,-99.99,,,0.00,wxRedirect v1.1,2013-03-17 21:46:00,
2013-03-17 16:52:00,41.2,32.5,29.73,ENE,67,6.7,6.7,71,-99.99,,,0.00,wxRedirect v1.1,2013-03-17 21:52:00,
2013-03-17 16:57:00,40.3,31.6,29.74,East,90,2.9,8.7,71,-99.99,,,0.00,wxRedirect v1.1,2013-03-17 21:57:00,
2013-03-17 17:02:00,40.8,32.5,29.74,ENE,67,1.1,8.7,72,-99.99,,,0.00,wxRedirect v1.1,2013-03-17 22:02:00,
2013-03-17 17:07:00,40.8,32.5,29.73,East,90,6.7,6.7,72,-99.99,,,0.00,wxRedirect v1.1,2013-03-17 22:07:00,
2013-03-17 17:13:00,40.8,32.5,29.74,East,90,4.7,6.7,72,-99.99,,,0.00,wxRedirect v1.1,2013-03-17 22:13:00,
2013-03-17 17:18:00,40.8,32.5,29.74,ENE,67,3.1,5.1,72,-99.99,,,0.00,wxRedirect v1.1,2013-03-17 22:18:00,
2013-03-17 17:23:00,40.8,32.8,29.74,ENE,67,6.3,6.3,73,-99.99,,,0.00,wxRedirect v1.1,2013-03-17 22:23:00,
2013-03-17 17:29:00,40.8,32.8,29.73,ESE,112,6.3,6.3,73,-99.99,,,0.00,wxRedirect v1.1,2013-03-17 22:29:00,
2013-03-17 17:34:00,40.6,32.6,29.73,ESE,112,4.3,6.3,73,-99.99,,,0.00,wxRedirect v1.1,2013-03-17 22:34:00,
2013-03-17 17:39:00,40.5,32.4,29.73,East,90,5.1,5.1,73,-99.99,,,0.00,wxRedirect v1.1,2013-03-17 22:39:00,
2013-03-17 17:45:00,39.7,31.7,29.73,ENE,67,5.6,5.6,73,-99.99,,,0.00,wxRedirect v1.1,2013-03-17 22:45:00,
2013-03-17 17:50:00,39.7,31.7,29.73,ENE,67,6.5,6.5,73,-99.99,,,0.00,wxRedirect v1.1,2013-03-17 22:50:00,
2013-03-17 17:55:00,40.5,32.4,29.73,ENE,67,6.5,6.5,73,-99.99,,,0.00,wxRedirect v1.1,2013-03-17 22:55:00,
2013-03-17 18:01:00,40.3,32.6,29.72,East,90,0.0,6.5,74,-99.99,,,0.00,wxRedirect v1.1,2013-03-17 23:01:00,
2013-03-17 18:06:00,40.3,32.6,29.72,ESE,112,2.9,7.8,74,-99.99,,,0.00,wxRedirect v1.1,2013-03-17 23:06:00,
2013-03-17 18:11:00,40.1,32.4,29.72,ENE,67,4.0,9.2,74,-99.99,,,0.00,wxRedirect v1.1,2013-03-17 23:11:00,
2013-03-17 18:17:00,39.9,32.3,29.72,East,90,0.4,9.2,74,-99.99,,,0.00,wxRedirect v1.1,2013-03-17 23:17:00,
2013-03-17 18:22:00,39.9,32.6,29.72,East,90,5.1,6.7,75,-99.99,,,0.00,wxRedirect v1.1,2013-03-17 23:22:00,
2013-03-17 18:27:00,39.9,32.6,29.71,ENE,67,4.7,6.7,75,-99.99,,,0.00,wxRedirect v1.1,2013-03-17 23:27:00,
2013-03-17 18:32:00,39.7,32.4,29.71,East,90,1.6,5.6,75,-99.99,,,0.00,wxRedirect v1.1,2013-03-17 23:32:00,
2013-03-17 18:38:00,39.7,32.4,29.71,East,90,0.0,5.6,75,-99.99,,,0.00,wxRedirect v1.1,2013-03-17 23:38:00,
2013-03-17 18:43:00,39.7,32.4,29.71,ESE,112,3.1,5.4,75,-99.99,,,0.00,wxRedirect v1.1,2013-03-17 23:43:00,
2013-03-17 18:49:00,39.7,32.4,29.71,East,90,5.6,5.6,75,-99.99,,,0.00,wxRedirect v1.1,2013-03-17 23:49:00,
2013-03-17 18:54:00,39.7,32.4,29.72,East,90,3.4,5.6,75,-99.99,,,0.00,wxRedirect v1.1,2013-03-17 23:54:00,
2013-03-17 18:59:00,39.7,32.4,29.72,ESE,112,7.2,7.2,75,-99.99,,,0.00,wxRedirect v1.1,2013-03-17 23:59:00,
2013-03-17 19:05:00,39.6,32.6,29.71,ESE,112,4.3,7.2,76,-99.99,,,0.00,wxRedirect v1.1,2013-03-18 00:05:00,
2013-03-17 19:10:00,39.6,32.6,29.71,ESE,112,4.9,4.9,76,-99.99,,,0.00,wxRedirect v1.1,2013-03-18 00:10:00,
2013-03-17 19:15:00,39.4,32.4,29.71,ESE,112,7.8,8.1,76,-99.99,,,0.00,wxRedirect v1.1,2013-03-18 00:15:00,
2013-03-17 19:21:00,39.0,32.1,29.71,ESE,112,3.4,8.1,76,-99.99,,,0.00,wxRedirect v1.1,2013-03-18 00:21:00,
2013-03-17 19:26:00,39.2,32.3,29.71,ESE,112,4.3,8.9,76,-99.99,,,0.00,wxRedirect v1.1,2013-03-18 00:26:00,
2013-03-17 19:32:00,39.0,32.1,29.72,ESE,112,0.0,8.9,76,-99.99,,,0.00,wxRedirect v1.1,2013-03-18 00:32:00,
2013-03-17 19:37:00,39.0,32.1,29.72,ENE,67,2.9,8.5,76,-99.99,,,0.00,wxRedirect v1.1,2013-03-18 00:37:00,
2013-03-17 19:42:00,39.0,32.1,29.72,ENE,67,3.8,8.5,76,-99.99,,,0.00,wxRedirect v1.1,2013-03-18 00:42:00,
2013-03-17 19:48:00,39.0,32.1,29.72,ESE,112,2.2,3.8,76,-99.99,,,0.00,wxRedirect v1.1,2013-03-18 00:48:00,
2013-03-17 19:53:00,39.0,32.1,29.71,ESE,112,8.5,8.5,76,-99.99,,,0.00,wxRedirect v1.1,2013-03-18 00:53:00,
2013-03-17 19:58:00,39.0,32.1,29.71,East,90,2.2,8.5,76,-99.99,,,0.00,wxRedirect v1.1,2013-03-18 00:58:00,
2013-03-17 20:04:00,38.8,31.9,29.71,SE,135,6.0,8.5,76,-99.99,,,0.00,wxRedirect v1.1,2013-03-18 01:04:00,
2013-03-17 20:09:00,38.8,31.9,29.72,East,90,2.9,6.0,76,-99.99,,,0.00,wxRedirect v1.1,2013-03-18 01:09:00,
2013-03-17 20:14:00,38.7,32.1,29.72,East,90,0.0,5.6,77,-99.99,,,0.00,wxRedirect v1.1,2013-03-18 01:14:00,
2013-03-17 20:20:00,38.7,32.1,29.72,ESE,112,3.8,6.9,77,-99.99,,,0.00,wxRedirect v1.1,2013-03-18 01:20:00,
2013-03-17 20:25:00,37.9,31.0,29.72,ESE,112,4.9,6.9,76,-99.99,,,0.00,wxRedirect v1.1,2013-03-18 01:25:00,
2013-03-17 20:30:00,38.5,31.9,29.72,SSE,157,5.6,7.6,77,-99.99,,,0.00,wxRedirect v1.1,2013-03-18 01:30:00,
2013-03-17 20:36:00,38.5,31.9,29.73,ESE,112,6.0,7.6,77,-99.99,,,0.00,wxRedirect v1.1,2013-03-18 01:36:00,
2013-03-17 20:42:00,38.5,31.9,29.75,SSE,157,0.0,6.5,77,-99.99,,,0.00,wxRedirect v1.1,2013-03-18 01:42:00,
2013-03-17 20:47:00,38.5,31.9,29.77,SSE,157,0.0,5.6,77,-99.99,,,0.00,wxRedirect v1.1,2013-03-18 01:47:00,
2013-03-17 20:52:00,38.8,32.2,29.76,SSE,157,0.0,5.6,77,-99.99,,,0.00,wxRedirect v1.1,2013-03-18 01:52:00,
2013-03-17 20:58:00,39.0,32.4,29.75,SSE,157,0.0,0.0,77,-99.99,,,0.00,wxRedirect v1.1,2013-03-18 01:58:00,
2013-03-17 21:03:00,39.0,32.4,29.75,SSE,157,0.9,0.9,77,-99.99,,,0.00,wxRedirect v1.1,2013-03-18 02:03:00,
2013-03-17 21:08:00,39.2,32.3,29.75,SSE,157,2.7,2.7,76,-99.99,,,0.00,wxRedirect v1.1,2013-03-18 02:08:00,
2013-03-17 21:14:00,39.0,32.1,29.75,SSE,157,0.0,2.7,76,-99.99,,,0.00,wxRedirect v1.1,2013-03-18 02:14:00,
2013-03-17 21:19:00,39.0,32.1,29.75,SSE,157,0.0,0.0,76,-99.99,,,0.00,wxRedirect v1.1,2013-03-18 02:19:00,
2013-03-17 21:24:00,38.5,31.6,29.75,SE,135,2.9,3.4,76,-99.99,,,0.00,wxRedirect v1.1,2013-03-18 02:24:00,
2013-03-17 21:30:00,39.0,32.1,29.75,SE,135,2.7,3.6,76,-99.99,,,0.00,wxRedirect v1.1,2013-03-18 02:30:00,
2013-03-17 21:35:00,38.8,32.2,29.74,SE,135,2.0,6.0,77,-99.99,,,0.00,wxRedirect v1.1,2013-03-18 02:35:00,
2013-03-17 21:40:00,37.9,31.4,29.74,SE,135,3.8,6.0,77,-99.99,,,0.00,wxRedirect v1.1,2013-03-18 02:40:00,
2013-03-17 21:46:00,38.5,31.9,29.74,SSE,157,6.5,6.5,77,-99.99,,,0.00,wxRedirect v1.1,2013-03-18 02:46:00,
2013-03-17 21:52:00,38.3,31.7,29.73,SE,135,4.3,6.5,77,-99.99,,,0.00,wxRedirect v1.1,2013-03-18 02:52:00,
2013-03-17 21:57:00,38.3,31.7,29.72,SE,135,1.8,5.4,77,-99.99,,,0.00,wxRedirect v1.1,2013-03-18 02:57:00,
2013-03-17 22:02:00,38.1,31.9,29.72,SE,135,5.6,5.6,78,-99.99,,,0.00,wxRedirect v1.1,2013-03-18 03:02:00,
2013-03-17 22:08:00,37.9,31.7,29.72,ESE,112,5.6,5.6,78,-99.99,,,0.00,wxRedirect v1.1,2013-03-18 03:08:00,
2013-03-17 22:13:00,37.8,31.5,29.71,ESE,112,3.4,5.6,78,-99.99,,,0.00,wxRedirect v1.1,2013-03-18 03:13:00,
2013-03-17 22:18:00,37.8,31.8,29.69,ESE,112,2.2,4.9,79,-99.99,,,0.00,wxRedirect v1.1,2013-03-18 03:18:00,
2013-03-17 22:24:00,37.8,31.5,29.68,SE,135,3.4,9.6,78,-99.99,,,0.00,wxRedirect v1.1,2013-03-18 03:24:00,
2013-03-17 22:29:00,37.6,31.7,29.68,SE,135,7.6,9.6,79,-99.99,,,0.00,wxRedirect v1.1,2013-03-18 03:29:00,
2013-03-17 22:34:00,37.6,31.7,29.70,SE,135,5.4,9.2,79,-99.99,,,0.00,wxRedirect v1.1,2013-03-18 03:34:00,
2013-03-17 22:40:00,37.6,31.7,29.70,ESE,112,8.1,9.2,79,-99.99,,,0.00,wxRedirect v1.1,2013-03-18 03:40:00,
2013-03-17 22:45:00,36.7,30.8,29.71,ESE,112,8.1,8.1,79,-99.99,,,0.00,wxRedirect v1.1,2013-03-18 03:45:00,
2013-03-17 22:50:00,37.4,31.8,29.71,ENE,67,5.1,8.1,80,-99.99,,,0.00,wxRedirect v1.1,2013-03-18 03:50:00,
2013-03-17 22:56:00,37.4,31.8,29.75,South,180,2.0,6.9,80,-99.99,,,0.00,wxRedirect v1.1,2013-03-18 03:56:00,
2013-03-17 23:00:00,37.6,32.0,29.74,South,180,0.0,6.9,80,-99.99,,,0.00,wxRedirect v1.1,2013-03-18 04:00:00,
2013-03-17 23:03:00,37.6,32.0,29.74,South,180,0.0,2.0,80,-99.99,,,0.00,wxRedirect v1.1,2013-03-18 04:03:00,
2013-03-17 23:05:00,37.8,32.2,29.75,South,180,0.0,0.0,80,-99.99,,,0.00,wxRedirect v1.1,2013-03-18 04:05:00,
2013-03-17 23:11:00,37.9,32.0,29.75,South,180,0.0,0.0,79,-99.99,,,0.00,wxRedirect v1.1,2013-03-18 04:11:00,
2013-03-17 23:16:00,37.9,32.0,29.74,South,180,0.0,0.0,79,-99.99,,,0.00,wxRedirect v1.1,2013-03-18 04:16:00,
2013-03-17 23:21:00,37.9,32.0,29.72,ESE,112,5.8,5.8,79,-99.99,,,0.00,wxRedirect v1.1,2013-03-18 04:21:00,
2013-03-17 23:27:00,37.9,32.4,29.76,East,90,0.0,5.8,80,-99.99,,,0.00,wxRedirect v1.1,2013-03-18 04:27:00,
2013-03-17 23:32:00,37.9,32.4,29.75,East,90,0.0,0.0,80,0.02,,,0.02,wxRedirect v1.1,2013-03-18 04:32:00,
2013-03-17 23:37:00,38.1,32.5,29.75,East,90,1.8,1.8,80,0.02,,,0.02,wxRedirect v1.1,2013-03-18 04:37:00,
2013-03-17 23:43:00,38.1,32.5,29.75,East,90,0.0,1.8,80,0.02,,,0.02,wxRedirect v1.1,2013-03-18 04:43:00,
2013-03-17 23:48:00,38.1,32.5,29.75,East,90,0.0,0.0,80,0.02,,,0.02,wxRedirect v1.1,2013-03-18 04:48:00,
2013-03-17 23:53:00,38.1,32.5,29.76,East,90,0.0,0.0,80,0.02,,,0.02,wxRedirect v1.1,2013-03-18 04:53:00,
2013-03-17 23:59:00,38.1,32.2,29.75,East,90,0.0,0.0,79,0.02,,,0.02,wxRedirect v1.1,2013-03-18 04:59:00,